Terminal Aerodrome Forecast
Issued by NWS Blacksburg, VA

Current Version | Previous Version | Graphics & Text | Print | Product List | Glossary On
Versions: 1 2 3 4 5 6 7 8 9 10 11 12 13 14 15 16 17 18 19
000
FTUS41 KRNK 140607 AAA
TAFBLF
TAF AMD
KBLF 140607Z 1406/1506 17012G22KT P6SM BKN200
     FM141100 19010G20KT P6SM SCT020 BKN100
     FM141500 22012G22KT P6SM -SHRA OVC040
     FM142000 21012G22KT P6SM OVC040
     FM150100 19011KT P6SM OVC050=

USA.gov is the U.S. government's official web portal to all federal, state and local government web resources and services.